sensor_id;sensor_type;location;lat;lon;timestamp;temperature;humidity
573;DHT22;271;51.114;13.780;2023-04-24T00:01:30;12.40;1.00
573;DHT22;271;51.114;13.780;2023-04-24T00:04:18;12.40;1.00
573;DHT22;271;51.114;13.780;2023-04-24T00:07:05;12.30;1.00
573;DHT22;271;51.114;13.780;2023-04-24T00:09:54;12.30;1.00
573;DHT22;271;51.114;13.780;2023-04-24T00:12:43;12.20;1.00
573;DHT22;271;51.114;13.780;2023-04-24T00:15:30;12.20;1.00
573;DHT22;271;51.114;13.780;2023-04-24T00:18:18;12.10;1.00
573;DHT22;271;51.114;13.780;2023-04-24T00:21:06;12.10;1.00
573;DHT22;271;51.114;13.780;2023-04-24T00:23:53;12.20;1.00
573;DHT22;271;51.114;13.780;2023-04-24T00:26:42;12.10;1.00
573;DHT22;271;51.114;13.780;2023-04-24T00:29:30;12.00;1.00
573;DHT22;271;51.114;13.780;2023-04-24T00:32:18;12.10;1.00
573;DHT22;271;51.114;13.780;2023-04-24T00:35:06;12.10;1.00
573;DHT22;271;51.114;13.780;2023-04-24T00:37:54;12.20;1.00
573;DHT22;271;51.114;13.780;2023-04-24T00:40:41;12.20;1.00
573;DHT22;271;51.114;13.780;2023-04-24T00:43:32;12.30;1.00
573;DHT22;271;51.114;13.780;2023-04-24T00:46:21;12.30;1.00
573;DHT22;271;51.114;13.780;2023-04-24T00:49:08;12.40;1.00
573;DHT22;271;51.114;13.780;2023-04-24T00:51:56;12.40;1.00
573;DHT22;271;51.114;13.780;2023-04-24T00:54:45;12.30;1.00
573;DHT22;271;51.114;13.780;2023-04-24T00:57:33;12.30;1.00
573;DHT22;271;51.114;13.780;2023-04-24T01:00:23;12.40;1.00
573;DHT22;271;51.114;13.780;2023-04-24T01:03:12;12.50;1.00
573;DHT22;271;51.114;13.780;2023-04-24T01:06:00;12.50;1.00
573;DHT22;271;51.114;13.780;2023-04-24T01:08:48;12.40;1.00
573;DHT22;271;51.114;13.780;2023-04-24T01:11:37;12.40;1.00
573;DHT22;271;51.114;13.780;2023-04-24T01:14:25;12.40;1.00
573;DHT22;271;51.114;13.780;2023-04-24T01:17:14;12.40;1.00
573;DHT22;271;51.114;13.780;2023-04-24T01:20:02;12.50;1.00
573;DHT22;271;51.114;13.780;2023-04-24T01:22:54;12.50;1.00
573;DHT22;271;51.114;13.780;2023-04-24T01:25:42;12.50;1.00
573;DHT22;271;51.114;13.780;2023-04-24T01:28:31;12.40;1.00
573;DHT22;271;51.114;13.780;2023-04-24T01:31:18;12.40;1.00
573;DHT22;271;51.114;13.780;2023-04-24T01:34:06;12.40;1.00
573;DHT22;271;51.114;13.780;2023-04-24T01:36:55;12.30;1.00
573;DHT22;271;51.114;13.780;2023-04-24T01:39:44;12.30;1.00
573;DHT22;271;51.114;13.780;2023-04-24T01:42:32;12.30;1.00
573;DHT22;271;51.114;13.780;2023-04-24T01:45:20;12.30;1.00
573;DHT22;271;51.114;13.780;2023-04-24T01:48:08;12.30;1.00
573;DHT22;271;51.114;13.780;2023-04-24T01:50:56;12.30;1.00
573;DHT22;271;51.114;13.780;2023-04-24T01:53:44;12.30;1.00
573;DHT22;271;51.114;13.780;2023-04-24T01:56:34;12.50;1.00
573;DHT22;271;51.114;13.780;2023-04-24T01:59:23;12.60;1.00
573;DHT22;271;51.114;13.780;2023-04-24T02:02:12;12.70;1.00
573;DHT22;271;51.114;13.780;2023-04-24T02:05:00;12.70;1.00
573;DHT22;271;51.114;13.780;2023-04-24T02:07:47;12.70;1.00
573;DHT22;271;51.114;13.780;2023-04-24T02:10:35;12.80;1.00
573;DHT22;271;51.114;13.780;2023-04-24T02:13:24;12.70;1.00
573;DHT22;271;51.114;13.780;2023-04-24T02:16:12;12.80;1.00
573;DHT22;271;51.114;13.780;2023-04-24T02:18:59;12.80;1.00
573;DHT22;271;51.114;13.780;2023-04-24T02:21:47;12.80;1.00
573;DHT22;271;51.114;13.780;2023-04-24T02:24:35;12.80;1.00
573;DHT22;271;51.114;13.780;2023-04-24T02:27:22;12.80;1.00
573;DHT22;271;51.114;13.780;2023-04-24T02:30:12;12.80;1.00
573;DHT22;271;51.114;13.780;2023-04-24T02:33:00;12.70;1.00
573;DHT22;271;51.114;13.780;2023-04-24T02:35:48;12.70;1.00
573;DHT22;271;51.114;13.780;2023-04-24T02:38:36;12.70;1.00
573;DHT22;271;51.114;13.780;2023-04-24T02:41:24;12.70;1.00
573;DHT22;271;51.114;13.780;2023-04-24T02:44:17;12.70;1.00
573;DHT22;271;51.114;13.780;2023-04-24T02:47:06;12.70;1.00
573;DHT22;271;51.114;13.780;2023-04-24T02:49:54;12.70;1.00
573;DHT22;271;51.114;13.780;2023-04-24T02:52:42;12.80;1.00
573;DHT22;271;51.114;13.780;2023-04-24T02:55:30;12.70;1.00
573;DHT22;271;51.114;13.780;2023-04-24T02:58:17;12.80;1.00
573;DHT22;271;51.114;13.780;2023-04-24T03:01:06;12.80;1.00
573;DHT22;271;51.114;13.780;2023-04-24T03:03:55;12.80;1.00
573;DHT22;271;51.114;13.780;2023-04-24T03:06:43;12.80;1.00
573;DHT22;271;51.114;13.780;2023-04-24T03:09:31;12.70;1.00
573;DHT22;271;51.114;13.780;2023-04-24T03:12:18;12.70;1.00
573;DHT22;271;51.114;13.780;2023-04-24T03:15:07;12.70;1.00
573;DHT22;271;51.114;13.780;2023-04-24T03:17:55;12.70;1.00
573;DHT22;271;51.114;13.780;2023-04-24T03:20:45;12.60;1.00
573;DHT22;271;51.114;13.780;2023-04-24T03:23:33;12.60;1.00
573;DHT22;271;51.114;13.780;2023-04-24T03:26:20;12.60;1.00
573;DHT22;271;51.114;13.780;2023-04-24T03:29:08;12.70;1.00
573;DHT22;271;51.114;13.780;2023-04-24T03:31:56;12.60;1.00
573;DHT22;271;51.114;13.780;2023-04-24T03:34:43;12.60;1.00
573;DHT22;271;51.114;13.780;2023-04-24T03:37:32;12.60;1.00
573;DHT22;271;51.114;13.780;2023-04-24T03:40:20;12.60;1.00
573;DHT22;271;51.114;13.780;2023-04-24T03:43:08;12.60;1.00
573;DHT22;271;51.114;13.780;2023-04-24T03:45:55;12.60;1.00
573;DHT22;271;51.114;13.780;2023-04-24T03:48:43;12.60;1.00
573;DHT22;271;51.114;13.780;2023-04-24T03:51:31;12.60;1.00
573;DHT22;271;51.114;13.780;2023-04-24T03:54:20;12.60;1.00
573;DHT22;271;51.114;13.780;2023-04-24T03:57:08;12.50;1.00
573;DHT22;271;51.114;13.780;2023-04-24T03:59:55;12.60;1.00
573;DHT22;271;51.114;13.780;2023-04-24T04:02:44;12.50;1.00
573;DHT22;271;51.114;13.780;2023-04-24T04:05:32;12.50;1.00
573;DHT22;271;51.114;13.780;2023-04-24T04:08:20;12.50;1.00
573;DHT22;271;51.114;13.780;2023-04-24T04:11:10;12.60;1.00
573;DHT22;271;51.114;13.780;2023-04-24T04:14:00;12.60;1.00
573;DHT22;271;51.114;13.780;2023-04-24T04:16:48;12.70;1.00
573;DHT22;271;51.114;13.780;2023-04-24T04:19:39;12.80;1.00
573;DHT22;271;51.114;13.780;2023-04-24T04:22:27;12.80;1.00
573;DHT22;271;51.114;13.780;2023-04-24T04:25:14;12.80;1.00
573;DHT22;271;51.114;13.780;2023-04-24T04:28:06;12.80;1.00
573;DHT22;271;51.114;13.780;2023-04-24T04:30:54;12.80;1.00
573;DHT22;271;51.114;13.780;2023-04-24T04:33:43;12.90;1.00
573;DHT22;271;51.114;13.780;2023-04-24T04:36:31;13.00;1.00
573;DHT22;271;51.114;13.780;2023-04-24T04:39:19;13.00;1.00
573;DHT22;271;51.114;13.780;2023-04-24T04:42:06;13.10;1.00
573;DHT22;271;51.114;13.780;2023-04-24T04:44:55;13.10;1.00
573;DHT22;271;51.114;13.780;2023-04-24T04:47:43;13.00;1.00
573;DHT22;271;51.114;13.780;2023-04-24T04:50:31;13.00;1.00
573;DHT22;271;51.114;13.780;2023-04-24T04:53:19;13.00;1.00
573;DHT22;271;51.114;13.780;2023-04-24T04:56:07;13.00;1.00
573;DHT22;271;51.114;13.780;2023-04-24T04:58:55;13.00;1.00
573;DHT22;271;51.114;13.780;2023-04-24T05:01:44;13.10;1.00
573;DHT22;271;51.114;13.780;2023-04-24T05:04:31;13.20;1.00
573;DHT22;271;51.114;13.780;2023-04-24T05:07:19;13.30;1.00
573;DHT22;271;51.114;13.780;2023-04-24T05:10:08;13.40;1.00
573;DHT22;271;51.114;13.780;2023-04-24T05:12:55;13.50;1.00
573;DHT22;271;51.114;13.780;2023-04-24T05:15:43;13.60;1.00
573;DHT22;271;51.114;13.780;2023-04-24T05:18:32;13.70;1.00
573;DHT22;271;51.114;13.780;2023-04-24T05:21:20;13.80;1.00
573;DHT22;271;51.114;13.780;2023-04-24T05:24:08;14.00;1.00
573;DHT22;271;51.114;13.780;2023-04-24T05:26:56;14.00;1.00
573;DHT22;271;51.114;13.780;2023-04-24T05:29:44;14.20;1.00
573;DHT22;271;51.114;13.780;2023-04-24T05:32:32;14.30;1.00
573;DHT22;271;51.114;13.780;2023-04-24T05:35:21;14.40;1.00
573;DHT22;271;51.114;13.780;2023-04-24T05:38:09;14.40;1.00
573;DHT22;271;51.114;13.780;2023-04-24T05:40:57;14.40;1.00
573;DHT22;271;51.114;13.780;2023-04-24T05:43:44;14.50;1.00
573;DHT22;271;51.114;13.780;2023-04-24T05:46:32;14.50;1.00
573;DHT22;271;51.114;13.780;2023-04-24T05:49:20;14.60;1.00
573;DHT22;271;51.114;13.780;2023-04-24T05:52:09;14.60;1.00
573;DHT22;271;51.114;13.780;2023-04-24T05:54:56;14.70;1.00
573;DHT22;271;51.114;13.780;2023-04-24T05:57:44;14.70;1.00
573;DHT22;271;51.114;13.780;2023-04-24T06:00:32;14.80;1.00
573;DHT22;271;51.114;13.780;2023-04-24T06:03:20;14.80;1.00
573;DHT22;271;51.114;13.780;2023-04-24T06:06:08;14.90;1.00
573;DHT22;271;51.114;13.780;2023-04-24T06:08:57;14.90;1.00
573;DHT22;271;51.114;13.780;2023-04-24T06:11:45;14.90;1.00
573;DHT22;271;51.114;13.780;2023-04-24T06:14:32;15.10;1.00
573;DHT22;271;51.114;13.780;2023-04-24T06:17:20;15.30;1.00
573;DHT22;271;51.114;13.780;2023-04-24T06:20:08;15.50;1.00
573;DHT22;271;51.114;13.780;2023-04-24T06:22:57;15.70;1.00
573;DHT22;271;51.114;13.780;2023-04-24T06:25:46;15.90;1.00
573;DHT22;271;51.114;13.780;2023-04-24T06:28:34;16.20;1.00
573;DHT22;271;51.114;13.780;2023-04-24T06:31:22;16.30;1.00
573;DHT22;271;51.114;13.780;2023-04-24T06:34:10;16.40;1.00
573;DHT22;271;51.114;13.780;2023-04-24T06:36:57;16.70;1.00
573;DHT22;271;51.114;13.780;2023-04-24T06:39:45;16.90;1.00
573;DHT22;271;51.114;13.780;2023-04-24T06:42:35;17.60;1.00
573;DHT22;271;51.114;13.780;2023-04-24T06:45:23;18.40;1.00
573;DHT22;271;51.114;13.780;2023-04-24T06:48:11;18.70;1.00
573;DHT22;271;51.114;13.780;2023-04-24T06:50:58;19.20;1.00
573;DHT22;271;51.114;13.780;2023-04-24T06:53:46;19.30;1.00
573;DHT22;271;51.114;13.780;2023-04-24T06:56:33;19.60;1.00
573;DHT22;271;51.114;13.780;2023-04-24T06:59:23;19.80;1.00
573;DHT22;271;51.114;13.780;2023-04-24T07:02:10;20.10;1.00
573;DHT22;271;51.114;13.780;2023-04-24T07:04:58;19.90;1.00
573;DHT22;271;51.114;13.780;2023-04-24T07:07:46;19.40;1.00
573;DHT22;271;51.114;13.780;2023-04-24T07:10:35;19.50;1.00
573;DHT22;271;51.114;13.780;2023-04-24T07:13:23;19.60;1.00
573;DHT22;271;51.114;13.780;2023-04-24T07:16:12;20.10;1.00
573;DHT22;271;51.114;13.780;2023-04-24T07:18:59;20.90;1.00
573;DHT22;271;51.114;13.780;2023-04-24T07:21:47;20.90;1.00
573;DHT22;271;51.114;13.780;2023-04-24T07:24:35;19.90;1.00
573;DHT22;271;51.114;13.780;2023-04-24T07:27:22;19.10;1.00
573;DHT22;271;51.114;13.780;2023-04-24T07:30:11;19.30;1.00
573;DHT22;271;51.114;13.780;2023-04-24T07:33:00;19.70;1.00
573;DHT22;271;51.114;13.780;2023-04-24T07:35:48;19.70;1.00
573;DHT22;271;51.114;13.780;2023-04-24T07:38:35;19.50;1.00
573;DHT22;271;51.114;13.780;2023-04-24T07:41:23;19.60;1.00
573;DHT22;271;51.114;13.780;2023-04-24T07:44:11;19.60;1.00
573;DHT22;271;51.114;13.780;2023-04-24T07:46:59;19.50;1.00
573;DHT22;271;51.114;13.780;2023-04-24T07:49:48;19.20;1.00
573;DHT22;271;51.114;13.780;2023-04-24T07:52:36;18.70;1.00
573;DHT22;271;51.114;13.780;2023-04-24T07:55:23;18.90;1.00
573;DHT22;271;51.114;13.780;2023-04-24T07:58:11;18.80;1.00
573;DHT22;271;51.114;13.780;2023-04-24T08:00:59;18.60;1.00
573;DHT22;271;51.114;13.780;2023-04-24T08:03:46;18.40;1.00
573;DHT22;271;51.114;13.780;2023-04-24T08:06:35;18.40;1.00
573;DHT22;271;51.114;13.780;2023-04-24T08:09:23;18.30;1.00
573;DHT22;271;51.114;13.780;2023-04-24T08:12:11;18.30;1.00
573;DHT22;271;51.114;13.780;2023-04-24T08:14:58;18.40;1.00
573;DHT22;271;51.114;13.780;2023-04-24T08:17:46;18.30;1.00
573;DHT22;271;51.114;13.780;2023-04-24T08:20:34;18.80;1.00
573;DHT22;271;51.114;13.780;2023-04-24T08:23:24;19.30;1.00
573;DHT22;271;51.114;13.780;2023-04-24T08:26:12;19.50;1.00
573;DHT22;271;51.114;13.780;2023-04-24T08:28:59;19.10;1.00
573;DHT22;271;51.114;13.780;2023-04-24T08:31:47;18.50;1.00
573;DHT22;271;51.114;13.780;2023-04-24T08:34:35;18.20;1.00
573;DHT22;271;51.114;13.780;2023-04-24T08:37:23;17.60;1.00
573;DHT22;271;51.114;13.780;2023-04-24T08:40:13;17.20;1.00
573;DHT22;271;51.114;13.780;2023-04-24T08:43:02;16.70;1.00
573;DHT22;271;51.114;13.780;2023-04-24T08:45:51;16.80;1.00
573;DHT22;271;51.114;13.780;2023-04-24T08:48:39;16.70;1.00
573;DHT22;271;51.114;13.780;2023-04-24T08:51:27;16.70;1.00
573;DHT22;271;51.114;13.780;2023-04-24T08:54:16;16.90;1.00
573;DHT22;271;51.114;13.780;2023-04-24T08:57:07;17.20;1.00
573;DHT22;271;51.114;13.780;2023-04-24T08:59:58;17.30;1.00
573;DHT22;271;51.114;13.780;2023-04-24T09:02:49;17.20;1.00
573;DHT22;271;51.114;13.780;2023-04-24T09:05:37;17.30;1.00
573;DHT22;271;51.114;13.780;2023-04-24T09:08:28;17.30;1.00
573;DHT22;271;51.114;13.780;2023-04-24T09:11:17;17.30;1.00
573;DHT22;271;51.114;13.780;2023-04-24T09:14:06;17.50;1.00
573;DHT22;271;51.114;13.780;2023-04-24T09:16:55;17.90;1.00
573;DHT22;271;51.114;13.780;2023-04-24T09:19:43;18.10;1.00
573;DHT22;271;51.114;13.780;2023-04-24T09:22:31;18.00;1.00
573;DHT22;271;51.114;13.780;2023-04-24T09:25:19;17.60;1.00
573;DHT22;271;51.114;13.780;2023-04-24T09:28:06;17.80;1.00
573;DHT22;271;51.114;13.780;2023-04-24T09:31:06;18.00;1.00
573;DHT22;271;51.114;13.780;2023-04-24T09:33:56;18.10;1.00
573;DHT22;271;51.114;13.780;2023-04-24T09:36:43;18.20;1.00
573;DHT22;271;51.114;13.780;2023-04-24T09:39:31;18.20;1.00
573;DHT22;271;51.114;13.780;2023-04-24T09:42:19;18.00;1.00
573;DHT22;271;51.114;13.780;2023-04-24T09:45:10;17.90;1.00
573;DHT22;271;51.114;13.780;2023-04-24T09:48:00;18.10;1.00
573;DHT22;271;51.114;13.780;2023-04-24T09:50:48;18.20;1.00
573;DHT22;271;51.114;13.780;2023-04-24T09:53:39;18.20;1.00
573;DHT22;271;51.114;13.780;2023-04-24T09:56:27;18.10;1.00
573;DHT22;271;51.114;13.780;2023-04-24T09:59:16;17.80;1.00
573;DHT22;271;51.114;13.780;2023-04-24T10:02:17;17.80;1.00
573;DHT22;271;51.114;13.780;2023-04-24T10:05:06;17.90;1.00
573;DHT22;271;51.114;13.780;2023-04-24T10:08:01;17.80;1.00
573;DHT22;271;51.114;13.780;2023-04-24T10:10:49;17.60;1.00
573;DHT22;271;51.114;13.780;2023-04-24T10:13:37;17.40;1.00
573;DHT22;271;51.114;13.780;2023-04-24T10:16:27;17.40;1.00
573;DHT22;271;51.114;13.780;2023-04-24T10:19:15;17.50;1.00
573;DHT22;271;51.114;13.780;2023-04-24T10:22:06;17.60;1.00
573;DHT22;271;51.114;13.780;2023-04-24T10:24:54;17.70;1.00
573;DHT22;271;51.114;13.780;2023-04-24T10:27:42;17.80;1.00
573;DHT22;271;51.114;13.780;2023-04-24T10:30:31;17.70;1.00
573;DHT22;271;51.114;13.780;2023-04-24T10:33:22;18.00;1.00
573;DHT22;271;51.114;13.780;2023-04-24T10:36:12;18.00;1.00
573;DHT22;271;51.114;13.780;2023-04-24T10:39:05;17.80;1.00
573;DHT22;271;51.114;13.780;2023-04-24T10:41:54;18.00;1.00
573;DHT22;271;51.114;13.780;2023-04-24T10:44:43;18.50;1.00
573;DHT22;271;51.114;13.780;2023-04-24T10:47:39;18.90;1.00
573;DHT22;271;51.114;13.780;2023-04-24T10:50:27;19.10;1.00
573;DHT22;271;51.114;13.780;2023-04-24T10:53:18;19.00;1.00
573;DHT22;271;51.114;13.780;2023-04-24T10:56:08;19.10;1.00
573;DHT22;271;51.114;13.780;2023-04-24T10:58:56;18.90;1.00
573;DHT22;271;51.114;13.780;2023-04-24T11:01:52;18.60;1.00
573;DHT22;271;51.114;13.780;2023-04-24T11:04:41;18.10;1.00
573;DHT22;271;51.114;13.780;2023-04-24T11:07:29;17.80;1.00
573;DHT22;271;51.114;13.780;2023-04-24T11:10:25;17.90;1.00
573;DHT22;271;51.114;13.780;2023-04-24T11:13:16;18.10;1.00
573;DHT22;271;51.114;13.780;2023-04-24T11:16:15;18.10;1.00
573;DHT22;271;51.114;13.780;2023-04-24T11:19:06;17.90;1.00
573;DHT22;271;51.114;13.780;2023-04-24T11:21:56;17.80;1.00
573;DHT22;271;51.114;13.780;2023-04-24T11:24:49;17.80;1.00
573;DHT22;271;51.114;13.780;2023-04-24T11:27:40;17.70;1.00
573;DHT22;271;51.114;13.780;2023-04-24T11:30:29;17.60;1.00
573;DHT22;271;51.114;13.780;2023-04-24T11:33:20;17.50;1.00
573;DHT22;271;51.114;13.780;2023-04-24T11:36:08;17.50;1.00
573;DHT22;271;51.114;13.780;2023-04-24T11:38:56;17.50;1.00
573;DHT22;271;51.114;13.780;2023-04-24T11:41:44;17.40;1.00
573;DHT22;271;51.114;13.780;2023-04-24T11:44:34;17.40;1.00
573;DHT22;271;51.114;13.780;2023-04-24T11:47:31;17.10;1.00
573;DHT22;271;51.114;13.780;2023-04-24T11:50:22;17.00;1.00
573;DHT22;271;51.114;13.780;2023-04-24T11:53:12;17.10;1.00
573;DHT22;271;51.114;13.780;2023-04-24T11:56:02;17.20;1.00
573;DHT22;271;51.114;13.780;2023-04-24T11:58:52;17.20;1.00
573;DHT22;271;51.114;13.780;2023-04-24T12:01:43;17.30;1.00
573;DHT22;271;51.114;13.780;2023-04-24T12:04:40;17.30;1.00
573;DHT22;271;51.114;13.780;2023-04-24T12:07:28;17.10;1.00
573;DHT22;271;51.114;13.780;2023-04-24T12:10:20;16.90;1.00
573;DHT22;271;51.114;13.780;2023-04-24T12:13:09;16.80;1.00
573;DHT22;271;51.114;13.780;2023-04-24T12:15:57;16.60;1.00
573;DHT22;271;51.114;13.780;2023-04-24T12:18:45;16.50;1.00
573;DHT22;271;51.114;13.780;2023-04-24T12:21:34;16.30;1.00
573;DHT22;271;51.114;13.780;2023-04-24T12:24:22;16.10;1.00
573;DHT22;271;51.114;13.780;2023-04-24T12:27:19;16.10;1.00
573;DHT22;271;51.114;13.780;2023-04-24T12:30:13;16.00;1.00
573;DHT22;271;51.114;13.780;2023-04-24T12:33:02;16.10;1.00
573;DHT22;271;51.114;13.780;2023-04-24T12:35:52;16.30;1.00
573;DHT22;271;51.114;13.780;2023-04-24T12:38:43;16.40;1.00
573;DHT22;271;51.114;13.780;2023-04-24T12:41:32;16.30;1.00
573;DHT22;271;51.114;13.780;2023-04-24T12:44:20;16.40;1.00
573;DHT22;271;51.114;13.780;2023-04-24T12:47:08;16.40;1.00
573;DHT22;271;51.114;13.780;2023-04-24T12:49:56;16.40;1.00
573;DHT22;271;51.114;13.780;2023-04-24T12:52:45;16.50;1.00
573;DHT22;271;51.114;13.780;2023-04-24T12:55:34;16.70;1.00
573;DHT22;271;51.114;13.780;2023-04-24T12:58:22;16.90;1.00
573;DHT22;271;51.114;13.780;2023-04-24T13:01:09;17.00;1.00
573;DHT22;271;51.114;13.780;2023-04-24T13:03:57;17.00;1.00
573;DHT22;271;51.114;13.780;2023-04-24T13:06:45;16.80;1.00
573;DHT22;271;51.114;13.780;2023-04-24T13:09:34;16.80;1.00
573;DHT22;271;51.114;13.780;2023-04-24T13:12:24;16.80;1.00
573;DHT22;271;51.114;13.780;2023-04-24T13:15:12;16.90;1.00
573;DHT22;271;51.114;13.780;2023-04-24T13:18:00;17.30;1.00
573;DHT22;271;51.114;13.780;2023-04-24T13:20:48;17.50;1.00
573;DHT22;271;51.114;13.780;2023-04-24T13:23:35;17.70;1.00
573;DHT22;271;51.114;13.780;2023-04-24T13:26:24;18.00;1.00
573;DHT22;271;51.114;13.780;2023-04-24T13:29:12;18.30;1.00
573;DHT22;271;51.114;13.780;2023-04-24T13:32:00;18.50;1.00
573;DHT22;271;51.114;13.780;2023-04-24T13:34:48;18.70;1.00
573;DHT22;271;51.114;13.780;2023-04-24T13:37:36;18.70;1.00
573;DHT22;271;51.114;13.780;2023-04-24T13:40:23;18.40;1.00
573;DHT22;271;51.114;13.780;2023-04-24T13:43:11;18.30;1.00
573;DHT22;271;51.114;13.780;2023-04-24T13:46:00;18.60;1.00
573;DHT22;271;51.114;13.780;2023-04-24T13:48:49;18.30;1.00
573;DHT22;271;51.114;13.780;2023-04-24T13:51:36;18.40;1.00
573;DHT22;271;51.114;13.780;2023-04-24T13:54:24;18.80;1.00
573;DHT22;271;51.114;13.780;2023-04-24T13:57:13;19.20;1.00
573;DHT22;271;51.114;13.780;2023-04-24T14:00:01;19.10;1.00
573;DHT22;271;51.114;13.780;2023-04-24T14:02:51;18.80;1.00
573;DHT22;271;51.114;13.780;2023-04-24T14:05:39;18.60;1.00
573;DHT22;271;51.114;13.780;2023-04-24T14:08:26;18.60;1.00
573;DHT22;271;51.114;13.780;2023-04-24T14:11:14;18.50;1.00
573;DHT22;271;51.114;13.780;2023-04-24T14:14:02;18.30;1.00
573;DHT22;271;51.114;13.780;2023-04-24T14:16:50;18.10;1.00
573;DHT22;271;51.114;13.780;2023-04-24T14:19:39;17.80;1.00
573;DHT22;271;51.114;13.780;2023-04-24T14:22:27;17.80;1.00
573;DHT22;271;51.114;13.780;2023-04-24T14:25:15;18.00;1.00
573;DHT22;271;51.114;13.780;2023-04-24T14:28:02;18.10;1.00
573;DHT22;271;51.114;13.780;2023-04-24T14:30:50;17.80;1.00
573;DHT22;271;51.114;13.780;2023-04-24T14:33:38;17.80;1.00
573;DHT22;271;51.114;13.780;2023-04-24T14:36:27;17.90;1.00
573;DHT22;271;51.114;13.780;2023-04-24T14:39:16;17.70;1.00
573;DHT22;271;51.114;13.780;2023-04-24T14:42:03;17.70;1.00
573;DHT22;271;51.114;13.780;2023-04-24T14:44:51;17.70;1.00
573;DHT22;271;51.114;13.780;2023-04-24T14:47:39;17.70;1.00
573;DHT22;271;51.114;13.780;2023-04-24T14:50:27;17.70;1.00
573;DHT22;271;51.114;13.780;2023-04-24T14:53:16;17.60;1.00
573;DHT22;271;51.114;13.780;2023-04-24T14:56:05;17.50;1.00
573;DHT22;271;51.114;13.780;2023-04-24T14:58:53;17.30;1.00
573;DHT22;271;51.114;13.780;2023-04-24T15:01:41;17.10;1.00
573;DHT22;271;51.114;13.780;2023-04-24T15:04:29;17.10;1.00
573;DHT22;271;51.114;13.780;2023-04-24T15:07:17;16.90;1.00
573;DHT22;271;51.114;13.780;2023-04-24T15:10:07;16.90;1.00
573;DHT22;271;51.114;13.780;2023-04-24T15:12:55;16.90;1.00
573;DHT22;271;51.114;13.780;2023-04-24T15:15:43;16.80;1.00
573;DHT22;271;51.114;13.780;2023-04-24T15:18:33;16.70;1.00
573;DHT22;271;51.114;13.780;2023-04-24T15:21:20;16.60;1.00
573;DHT22;271;51.114;13.780;2023-04-24T15:24:08;16.50;1.00
573;DHT22;271;51.114;13.780;2023-04-24T15:26:58;16.50;1.00
573;DHT22;271;51.114;13.780;2023-04-24T15:29:47;16.50;1.00
573;DHT22;271;51.114;13.780;2023-04-24T15:32:35;16.50;1.00
573;DHT22;271;51.114;13.780;2023-04-24T15:35:23;16.40;1.00
573;DHT22;271;51.114;13.780;2023-04-24T15:38:11;16.20;1.00
573;DHT22;271;51.114;13.780;2023-04-24T15:40:59;16.10;1.00
573;DHT22;271;51.114;13.780;2023-04-24T15:43:48;16.10;1.00
573;DHT22;271;51.114;13.780;2023-04-24T15:46:35;16.00;1.00
573;DHT22;271;51.114;13.780;2023-04-24T15:49:23;15.80;1.00
573;DHT22;271;51.114;13.780;2023-04-24T15:52:11;15.80;1.00
573;DHT22;271;51.114;13.780;2023-04-24T15:55:00;15.70;1.00
573;DHT22;271;51.114;13.780;2023-04-24T15:57:47;15.70;1.00
573;DHT22;271;51.114;13.780;2023-04-24T16:00:37;15.60;1.00
573;DHT22;271;51.114;13.780;2023-04-24T16:03:25;15.70;1.00
573;DHT22;271;51.114;13.780;2023-04-24T16:06:12;15.60;1.00
573;DHT22;271;51.114;13.780;2023-04-24T16:09:00;15.60;1.00
573;DHT22;271;51.114;13.780;2023-04-24T16:11:48;15.50;1.00
573;DHT22;271;51.114;13.780;2023-04-24T16:14:36;15.30;1.00
573;DHT22;271;51.114;13.780;2023-04-24T16:17:25;15.20;1.00
573;DHT22;271;51.114;13.780;2023-04-24T16:20:13;15.10;1.00
573;DHT22;271;51.114;13.780;2023-04-24T16:23:02;15.10;1.00
573;DHT22;271;51.114;13.780;2023-04-24T16:25:50;15.10;1.00
573;DHT22;271;51.114;13.780;2023-04-24T16:28:38;15.10;1.00
573;DHT22;271;51.114;13.780;2023-04-24T16:31:26;15.10;1.00
573;DHT22;271;51.114;13.780;2023-04-24T16:34:15;15.20;1.00
573;DHT22;271;51.114;13.780;2023-04-24T16:37:03;15.10;1.00
573;DHT22;271;51.114;13.780;2023-04-24T16:39:50;15.10;1.00
573;DHT22;271;51.114;13.780;2023-04-24T16:42:40;15.10;1.00
573;DHT22;271;51.114;13.780;2023-04-24T16:45:28;15.10;1.00
573;DHT22;271;51.114;13.780;2023-04-24T16:48:15;14.90;1.00
573;DHT22;271;51.114;13.780;2023-04-24T16:51:11;14.80;1.00
573;DHT22;271;51.114;13.780;2023-04-24T16:54:06;14.70;1.00
573;DHT22;271;51.114;13.780;2023-04-24T16:56:54;14.70;1.00
573;DHT22;271;51.114;13.780;2023-04-24T16:59:43;14.60;1.00
573;DHT22;271;51.114;13.780;2023-04-24T17:02:31;14.60;1.00
573;DHT22;271;51.114;13.780;2023-04-24T17:05:19;14.60;1.00
573;DHT22;271;51.114;13.780;2023-04-24T17:08:10;14.60;1.00
573;DHT22;271;51.114;13.780;2023-04-24T17:10:57;14.60;1.00
573;DHT22;271;51.114;13.780;2023-04-24T17:13:45;14.60;1.00
573;DHT22;271;51.114;13.780;2023-04-24T17:16:33;14.60;1.00
573;DHT22;271;51.114;13.780;2023-04-24T17:19:20;14.50;1.00
573;DHT22;271;51.114;13.780;2023-04-24T17:22:08;14.50;1.00
573;DHT22;271;51.114;13.780;2023-04-24T17:24:57;14.40;1.00
573;DHT22;271;51.114;13.780;2023-04-24T17:27:45;14.40;1.00
573;DHT22;271;51.114;13.780;2023-04-24T17:30:33;14.30;1.00
573;DHT22;271;51.114;13.780;2023-04-24T17:33:22;14.20;1.00
573;DHT22;271;51.114;13.780;2023-04-24T17:36:09;14.10;1.00
573;DHT22;271;51.114;13.780;2023-04-24T17:38:57;14.10;1.00
573;DHT22;271;51.114;13.780;2023-04-24T17:41:46;14.00;1.00
573;DHT22;271;51.114;13.780;2023-04-24T17:44:34;13.90;1.00
573;DHT22;271;51.114;13.780;2023-04-24T17:47:24;13.80;1.00
573;DHT22;271;51.114;13.780;2023-04-24T17:50:12;13.80;1.00
573;DHT22;271;51.114;13.780;2023-04-24T17:53:00;13.80;1.00
573;DHT22;271;51.114;13.780;2023-04-24T17:55:48;13.70;1.00
573;DHT22;271;51.114;13.780;2023-04-24T17:58:37;13.60;1.00
573;DHT22;271;51.114;13.780;2023-04-24T18:01:25;13.50;1.00
573;DHT22;271;51.114;13.780;2023-04-24T18:04:14;13.40;1.00
573;DHT22;271;51.114;13.780;2023-04-24T18:07:01;13.30;1.00
573;DHT22;271;51.114;13.780;2023-04-24T18:09:49;13.30;1.00
573;DHT22;271;51.114;13.780;2023-04-24T18:12:37;13.20;1.00
573;DHT22;271;51.114;13.780;2023-04-24T18:15:26;13.10;1.00
573;DHT22;271;51.114;13.780;2023-04-24T18:18:13;12.90;1.00
573;DHT22;271;51.114;13.780;2023-04-24T18:21:03;12.70;1.00
573;DHT22;271;51.114;13.780;2023-04-24T18:23:51;12.70;1.00
573;DHT22;271;51.114;13.780;2023-04-24T18:26:39;12.60;1.00
573;DHT22;271;51.114;13.780;2023-04-24T18:29:27;12.50;1.00
573;DHT22;271;51.114;13.780;2023-04-24T18:32:16;12.40;1.00
573;DHT22;271;51.114;13.780;2023-04-24T18:35:04;12.40;1.00
573;DHT22;271;51.114;13.780;2023-04-24T18:37:52;12.20;1.00
573;DHT22;271;51.114;13.780;2023-04-24T18:40:40;12.20;1.00
573;DHT22;271;51.114;13.780;2023-04-24T18:43:28;12.00;1.00
573;DHT22;271;51.114;13.780;2023-04-24T18:46:16;12.00;1.00
573;DHT22;271;51.114;13.780;2023-04-24T18:49:05;11.90;1.00
573;DHT22;271;51.114;13.780;2023-04-24T18:51:52;11.80;1.00
573;DHT22;271;51.114;13.780;2023-04-24T18:54:40;11.70;1.00
573;DHT22;271;51.114;13.780;2023-04-24T18:57:28;11.70;1.00